Time;durP1;ratioP1;P1;durP2;ratioP2;P2;SDS_P1;SDS_P2;PMS_P1;PMS_P2;Temp;Humidity;BMP_temperature;BMP_pressure;BME280_temperature;BME280_humidity;BME280_pressure;Samples;Min_cycle;Max_cycle;Signal;HPM_P1;HPM_P2
2022/01/27 00:03:23;;;;;;;0.75;0.68;;;;;;;;;;5017432;28;20192;-81
2022/01/27 00:05:55;;;;;;;0.40;0.40;;;;;;;;;;5020596;28;20048;-81
2022/01/27 00:08:28;;;;;;;0.50;0.50;;;;;;;;;;5004450;28;20117;-80
2022/01/27 00:10:59;;;;;;;0.82;0.82;;;;;;;;;;5021790;28;20162;-81
2022/01/27 00:13:31;;;;;;;1.83;1.73;;;;;;;;;;5020664;28;20056;-80
2022/01/27 00:16:16;;;;;;;0.70;0.70;;;;;;;;;;5021530;28;20881;-80
2022/01/27 00:18:42;;;;;;;0.65;0.65;;;;;;;;;;5021732;28;20051;-81
2022/01/27 00:21:09;;;;;;;2.65;1.25;;;;;;;;;;5020599;28;20080;-81
2022/01/27 00:23:35;;;;;;;0.45;0.45;;;;;;;;;;5020890;28;20040;-81
2022/01/27 00:26:01;;;;;;;0.57;0.57;;;;;;;;;;5021018;28;20087;-80
2022/01/27 00:28:27;;;;;;;0.20;0.20;;;;;;;;;;5020381;28;20115;-81
2022/01/27 00:30:53;;;;;;;0.85;0.80;;;;;;;;;;5047541;28;20426;-81
2022/01/27 00:33:20;;;;;;;0.50;0.50;;;;;;;;;;5081718;28;20036;-81
2022/01/27 00:35:46;;;;;;;0.60;0.60;;;;;;;;;;5082490;28;20081;-81
2022/01/27 00:38:12;;;;;;;0.17;0.17;;;;;;;;;;5081623;28;20036;-81
2022/01/27 00:40:38;;;;;;;0.65;0.65;;;;;;;;;;5067059;28;20064;-81
2022/01/27 00:43:04;;;;;;;1.73;0.93;;;;;;;;;;5084143;28;20388;-80
2022/01/27 00:45:32;;;;;;;1.63;1.02;;;;;;;;;;5082185;28;20042;-80
2022/01/27 00:48:02;;;;;;;0.43;0.43;;;;;;;;;;5073581;28;20438;-81
2022/01/27 00:50:28;;;;;;;1.05;0.98;;;;;;;;;;5083728;28;20068;-81
2022/01/27 00:52:56;;;;;;;0.50;0.50;;;;;;;;;;5089230;28;20070;-81
2022/01/27 00:55:25;;;;;;;0.73;0.73;;;;;;;;;;5077600;28;20047;-81
2022/01/27 01:00:23;;;;;;;0.70;0.50;;;;;;;;;;5081688;28;20040;-81
2022/01/27 01:03:00;;;;;;;1.00;0.60;;;;;;;;;;5079915;28;20499;-81
2022/01/27 01:05:47;;;;;;;1.95;1.00;;;;;;;;;;5085396;28;20040;-81
2022/01/27 01:15:55;;;;;;;1.30;1.03;;;;;;;;;;5083022;28;20040;-84
2022/01/27 01:29:29;;;;;;;1.08;1.08;;;;;;;;;;5016402;28;20040;-83
2022/01/27 01:34:29;;;;;;;1.25;1.10;;;;;;;;;;5012538;28;20056;-83
2022/01/27 01:37:05;;;;;;;1.05;1.05;;;;;;;;;;5010472;28;20171;-83
2022/01/27 01:39:33;;;;;;;0.47;0.47;;;;;;;;;;5015347;28;20049;-82
2022/01/27 01:42:00;;;;;;;1.13;0.85;;;;;;;;;;5010583;28;20038;-84
2022/01/27 01:44:26;;;;;;;0.82;0.82;;;;;;;;;;5009571;28;20044;-84
2022/01/27 01:46:52;;;;;;;2.47;0.87;;;;;;;;;;5012750;28;20569;-83
2022/01/27 01:49:19;;;;;;;1.13;0.95;;;;;;;;;;5006823;28;20831;-84
2022/01/27 01:51:45;;;;;;;;;;;;;;;;;;5008431;28;20026;-83
2022/01/27 01:54:12;;;;;;;0.73;0.73;;;;;;;;;;4998284;28;19932;-83
2022/01/27 01:56:39;;;;;;;0.43;0.43;;;;;;;;;;5007528;28;20288;-83
2022/01/27 01:59:08;;;;;;;;;;;;;;;;;;5024576;28;20039;-83
2022/01/27 02:01:35;;;;;;;0.20;0.20;;;;;;;;;;5061060;28;20020;-84
2022/01/27 02:04:05;;;;;;;1.15;0.73;;;;;;;;;;5065454;28;20846;-84
2022/01/27 02:06:37;;;;;;;0.50;0.50;;;;;;;;;;5087967;28;20024;-84
2022/01/27 02:19:45;;;;;;;0.17;0.17;;;;;;;;;;5080819;28;20074;-82
2022/01/27 02:22:11;;;;;;;0.93;0.93;;;;;;;;;;5078811;28;20111;-82
2022/01/27 02:24:37;;;;;;;1.67;1.57;;;;;;;;;;5078006;28;20028;-83
2022/01/27 02:27:04;;;;;;;0.40;0.40;;;;;;;;;;5077004;28;20093;-83
2022/01/27 02:29:30;;;;;;;0.30;0.30;;;;;;;;;;5062328;28;20043;-83
2022/01/27 02:31:58;;;;;;;1.13;0.90;;;;;;;;;;5081366;28;20021;-83
2022/01/27 02:34:24;;;;;;;0.65;0.65;;;;;;;;;;5083180;28;20047;-83
2022/01/27 02:36:50;;;;;;;0.45;0.45;;;;;;;;;;5063853;28;20165;-83
2022/01/27 02:39:17;;;;;;;0.50;0.50;;;;;;;;;;5076417;28;20043;-83
2022/01/27 02:41:46;;;;;;;1.35;1.23;;;;;;;;;;5078702;28;20807;-83
2022/01/27 02:44:29;;;;;;;0.28;0.28;;;;;;;;;;5064129;28;20032;-83
2022/01/27 02:46:55;;;;;;;0.43;0.43;;;;;;;;;;5053034;28;20376;-83
2022/01/27 02:49:21;;;;;;;0.30;0.30;;;;;;;;;;5082409;28;20032;-83
2022/01/27 02:51:47;;;;;;;0.28;0.28;;;;;;;;;;5071744;28;20036;-82
2022/01/27 02:54:14;;;;;;;0.25;0.25;;;;;;;;;;5062533;28;20094;-83
2022/01/27 02:56:44;;;;;;;0.20;0.20;;;;;;;;;;5079590;28;20583;-82
2022/01/27 02:59:11;;;;;;;0.57;0.57;;;;;;;;;;5075534;28;20149;-81
2022/01/27 03:01:37;;;;;;;0.90;0.90;;;;;;;;;;5081108;28;20028;-81
2022/01/27 03:04:03;;;;;;;1.80;1.57;;;;;;;;;;5061467;28;20036;-82
2022/01/27 03:06:29;;;;;;;0.77;0.60;;;;;;;;;;5077112;28;20032;-81
2022/01/27 03:08:55;;;;;;;0.70;0.70;;;;;;;;;;5080862;28;20031;-82
2022/01/27 03:11:48;;;;;;;1.00;0.57;;;;;;;;;;5079309;28;20048;-81
2022/01/27 03:14:15;;;;;;;0.30;0.30;;;;;;;;;;5075385;28;20056;-81
2022/01/27 03:16:41;;;;;;;0.20;0.20;;;;;;;;;;5081431;28;20411;-81
2022/01/27 03:19:08;;;;;;;0.85;0.85;;;;;;;;;;5081530;28;20570;-81
2022/01/27 03:21:34;;;;;;;1.77;0.68;;;;;;;;;;5075483;28;20035;-80
2022/01/27 03:24:01;;;;;;;0.98;0.40;;;;;;;;;;5075473;28;20044;-81
2022/01/27 03:26:27;;;;;;;0.70;0.70;;;;;;;;;;5074304;28;20571;-81
2022/01/27 03:28:53;;;;;;;1.17;1.08;;;;;;;;;;5079760;28;20141;-82
2022/01/27 03:31:20;;;;;;;0.95;0.95;;;;;;;;;;5082354;28;20032;-81
2022/01/27 03:33:46;;;;;;;1.05;0.88;;;;;;;;;;5072181;28;20042;-81
2022/01/27 03:36:13;;;;;;;0.30;0.30;;;;;;;;;;5079861;28;20032;-80
2022/01/27 03:38:39;;;;;;;0.28;0.28;;;;;;;;;;5078423;28;20111;-80
2022/01/27 03:41:07;;;;;;;0.50;0.50;;;;;;;;;;5077600;28;20029;-81
2022/01/27 03:43:34;;;;;;;0.77;0.77;;;;;;;;;;5081625;28;20062;-84
2022/01/27 03:46:00;;;;;;;0.95;0.90;;;;;;;;;;5081353;28;20054;-82
2022/01/27 03:48:26;;;;;;;2.53;1.27;;;;;;;;;;5078641;28;20032;-81
2022/01/27 03:50:52;;;;;;;0.30;0.30;;;;;;;;;;5080369;28;20173;-81
2022/01/27 03:53:18;;;;;;;1.03;1.03;;;;;;;;;;5077739;28;20059;-80
2022/01/27 03:55:45;;;;;;;0.90;0.80;;;;;;;;;;5078935;28;20032;-79
2022/01/27 03:58:11;;;;;;;0.30;0.30;;;;;;;;;;5078910;28;20099;-79
2022/01/27 04:00:37;;;;;;;9.80;0.80;;;;;;;;;;5078144;28;20056;-79
2022/01/27 04:03:07;;;;;;;0.30;0.30;;;;;;;;;;5059765;28;20037;-79
2022/01/27 04:05:37;;;;;;;1.50;1.13;;;;;;;;;;5076586;28;20028;-79
2022/01/27 04:08:05;;;;;;;0.13;0.13;;;;;;;;;;5075504;28;20109;-79
2022/01/27 04:10:31;;;;;;;0.70;0.70;;;;;;;;;;5081425;28;20063;-79
2022/01/27 04:12:58;;;;;;;0.40;0.40;;;;;;;;;;5079503;28;20050;-79
2022/01/27 04:15:25;;;;;;;0.33;0.33;;;;;;;;;;5079993;28;20051;-78
2022/01/27 04:17:51;;;;;;;2.20;0.95;;;;;;;;;;5082076;28;20127;-79
2022/01/27 04:20:17;;;;;;;0.60;0.60;;;;;;;;;;5082909;28;20098;-79
2022/01/27 04:22:43;;;;;;;0.50;0.50;;;;;;;;;;5073977;28;20270;-79
2022/01/27 04:25:11;;;;;;;1.80;1.33;;;;;;;;;;5084416;28;20111;-80
2022/01/27 04:27:40;;;;;;;0.47;0.45;;;;;;;;;;5083271;28;20035;-80
2022/01/27 04:30:11;;;;;;;0.35;0.28;;;;;;;;;;5083286;28;20032;-79
2022/01/27 04:32:44;;;;;;;0.32;0.32;;;;;;;;;;5094147;28;20138;-80
2022/01/27 04:35:14;;;;;;;1.75;0.95;;;;;;;;;;5087278;28;20557;-81
2022/01/27 04:37:52;;;;;;;0.85;0.85;;;;;;;;;;5089917;28;20107;-82
2022/01/27 04:40:24;;;;;;;1.23;1.13;;;;;;;;;;5069300;28;20036;-82
2022/01/27 04:43:30;;;;;;;0.43;0.43;;;;;;;;;;5089299;28;20027;-81
2022/01/27 04:45:57;;;;;;;0.32;0.32;;;;;;;;;;5082766;28;20039;-81
2022/01/27 04:48:25;;;;;;;1.85;1.10;;;;;;;;;;5082942;28;20085;-80
2022/01/27 04:50:52;;;;;;;0.52;0.50;;;;;;;;;;5088006;28;20322;-81
2022/01/27 04:53:23;;;;;;;0.40;0.40;;;;;;;;;;5084806;28;20541;-81
2022/01/27 04:55:49;;;;;;;0.20;0.20;;;;;;;;;;5085480;28;20120;-81
2022/01/27 04:58:20;;;;;;;0.70;0.67;;;;;;;;;;5093549;28;20028;-81
2022/01/27 05:00:47;;;;;;;0.50;0.50;;;;;;;;;;5090943;28;20076;-81
2022/01/27 05:03:19;;;;;;;1.15;1.13;;;;;;;;;;5089107;28;20031;-81
2022/01/27 05:05:45;;;;;;;1.45;1.05;;;;;;;;;;5085704;28;20031;-81
2022/01/27 05:08:17;;;;;;;0.30;0.30;;;;;;;;;;5083998;28;20025;-81
2022/01/27 05:10:52;;;;;;;0.10;0.10;;;;;;;;;;5082471;28;20032;-81
2022/01/27 05:13:20;;;;;;;0.50;0.50;;;;;;;;;;5086945;28;20602;-83
2022/01/27 05:15:46;;;;;;;0.22;0.22;;;;;;;;;;5090538;28;20043;-83
2022/01/27 05:18:12;;;;;;;0.67;0.67;;;;;;;;;;5084966;28;20020;-83
2022/01/27 05:20:39;;;;;;;1.00;0.95;;;;;;;;;;5088924;28;20339;-83
2022/01/27 05:23:05;;;;;;;1.98;0.82;;;;;;;;;;5068910;28;20047;-82
2022/01/27 05:25:31;;;;;;;0.70;0.70;;;;;;;;;;5089151;28;20038;-82
2022/01/27 05:27:57;;;;;;;0.30;0.30;;;;;;;;;;5091749;28;20032;-83
2022/01/27 05:30:23;;;;;;;0.17;0.17;;;;;;;;;;5078227;28;20024;-83
2022/01/27 05:32:49;;;;;;;0.23;0.23;;;;;;;;;;5087555;28;20282;-82
2022/01/27 05:35:15;;;;;;;0.57;0.57;;;;;;;;;;5081725;28;20050;-82
2022/01/27 05:37:41;;;;;;;0.38;0.38;;;;;;;;;;5063197;28;20028;-79
2022/01/27 05:40:07;;;;;;;0.40;0.40;;;;;;;;;;5085300;28;20513;-86
2022/01/27 05:42:34;;;;;;;0.50;0.50;;;;;;;;;;5083010;28;20035;-86
2022/01/27 05:45:00;;;;;;;0.67;0.63;;;;;;;;;;5080791;28;20028;-87
2022/01/27 05:47:26;;;;;;;0.17;0.17;;;;;;;;;;5067190;28;20043;-83
2022/01/27 05:49:52;;;;;;;12.30;1.00;;;;;;;;;;5079965;28;20054;-83
2022/01/27 05:52:19;;;;;;;0.97;0.97;;;;;;;;;;5081498;28;20474;-84
2022/01/27 05:54:45;;;;;;;2.17;1.05;;;;;;;;;;5086573;28;20119;-86
2022/01/27 05:57:13;;;;;;;0.52;0.30;;;;;;;;;;5083131;28;20059;-85
2022/01/27 05:59:39;;;;;;;0.20;0.20;;;;;;;;;;5077048;28;20039;-82
2022/01/27 06:02:05;;;;;;;1.00;1.00;;;;;;;;;;5082202;28;20035;-85
2022/01/27 06:04:32;;;;;;;0.40;0.40;;;;;;;;;;5079933;28;20036;-87
2022/01/27 06:06:58;;;;;;;0.73;0.55;;;;;;;;;;5081915;28;20039;-87
2022/01/27 06:09:25;;;;;;;0.27;0.27;;;;;;;;;;5078190;28;20521;-86
2022/01/27 06:11:51;;;;;;;0.40;0.40;;;;;;;;;;5080297;28;20280;-86
2022/01/27 06:14:17;;;;;;;0.98;0.65;;;;;;;;;;5080325;28;20044;-86
2022/01/27 06:16:46;;;;;;;0.10;0.10;;;;;;;;;;5082634;28;20028;-87
2022/01/27 06:19:13;;;;;;;0.20;0.20;;;;;;;;;;5081693;28;20513;-86
2022/01/27 06:21:40;;;;;;;0.20;0.20;;;;;;;;;;5080140;28;20529;-87
2022/01/27 06:24:06;;;;;;;;;;;;;;;;;;5067797;28;20066;-81
2022/01/27 06:26:32;;;;;;;0.10;0.10;;;;;;;;;;5085425;28;19912;-86
2022/01/27 06:28:58;;;;;;;0.80;0.77;;;;;;;;;;5087682;28;20118;-86
2022/01/27 06:31:25;;;;;;;0.37;0.37;;;;;;;;;;5076774;28;20039;-87
2022/01/27 06:33:52;;;;;;;0.68;0.68;;;;;;;;;;5078240;28;20253;-85
2022/01/27 06:36:18;;;;;;;0.20;0.20;;;;;;;;;;5078021;28;20024;-84
2022/01/27 06:38:44;;;;;;;0.20;0.20;;;;;;;;;;5083927;28;20105;-82
2022/01/27 06:41:11;;;;;;;0.20;0.20;;;;;;;;;;5083732;28;20028;-82
2022/01/27 06:43:37;;;;;;;0.40;0.40;;;;;;;;;;5084674;28;20123;-83
2022/01/27 06:46:03;;;;;;;6.18;1.20;;;;;;;;;;5081997;28;20515;-84
2022/01/27 06:48:29;;;;;;;4.88;1.30;;;;;;;;;;5068093;28;20047;-84
2022/01/27 06:50:56;;;;;;;0.30;0.30;;;;;;;;;;5085426;28;20569;-84
2022/01/27 06:53:23;;;;;;;0.85;0.85;;;;;;;;;;5077714;28;20131;-84
2022/01/27 06:55:51;;;;;;;0.20;0.20;;;;;;;;;;5080490;28;20083;-82
2022/01/27 06:58:17;;;;;;;0.38;0.38;;;;;;;;;;5084032;28;20063;-82
2022/01/27 07:00:43;;;;;;;0.10;0.10;;;;;;;;;;5076422;28;20515;-83
2022/01/27 07:03:09;;;;;;;0.90;0.53;;;;;;;;;;5080045;28;20036;-85
2022/01/27 07:05:35;;;;;;;0.20;0.20;;;;;;;;;;5064411;28;20032;-86
2022/01/27 07:08:01;;;;;;;0.40;0.40;;;;;;;;;;5064653;28;20025;-87
2022/01/27 07:10:28;;;;;;;3.30;3.03;;;;;;;;;;5079125;28;20122;-86
2022/01/27 07:12:54;;;;;;;0.85;0.82;;;;;;;;;;5076288;28;20039;-85
2022/01/27 07:15:20;;;;;;;0.30;0.30;;;;;;;;;;5077709;28;20066;-88
2022/01/27 07:17:47;;;;;;;1.65;1.08;;;;;;;;;;5079252;28;20482;-86
2022/01/27 07:20:13;;;;;;;;;;;;;;;;;;5063072;28;20407;-87
2022/01/27 07:22:40;;;;;;;0.65;0.65;;;;;;;;;;5080376;28;20306;-84
2022/01/27 07:25:07;;;;;;;0.10;0.10;;;;;;;;;;5075252;28;20032;-86
2022/01/27 07:27:34;;;;;;;1.10;0.52;;;;;;;;;;5082128;28;20043;-87
2022/01/27 07:30:00;;;;;;;1.25;0.95;;;;;;;;;;5076249;28;20020;-85
2022/01/27 07:32:26;;;;;;;0.20;0.20;;;;;;;;;;5087528;28;20028;-86
2022/01/27 07:34:52;;;;;;;1.17;1.07;;;;;;;;;;5046794;28;20423;-86
2022/01/27 07:37:18;;;;;;;0.40;0.40;;;;;;;;;;5063725;28;20278;-87
2022/01/27 07:39:45;;;;;;;0.45;0.45;;;;;;;;;;5070393;28;20028;-86
2022/01/27 07:42:11;;;;;;;1.10;1.05;;;;;;;;;;5072142;28;20103;-83
2022/01/27 07:44:37;;;;;;;5.00;1.17;;;;;;;;;;5085355;28;20107;-82
2022/01/27 07:47:03;;;;;;;0.50;0.50;;;;;;;;;;5091914;28;20516;-82
2022/01/27 07:49:29;;;;;;;1.10;1.10;;;;;;;;;;5088561;28;20036;-82
2022/01/27 07:51:55;;;;;;;0.40;0.40;;;;;;;;;;5072125;28;20032;-82
2022/01/27 07:54:21;;;;;;;0.28;0.28;;;;;;;;;;5081005;28;20035;-83
2022/01/27 07:56:47;;;;;;;1.23;1.13;;;;;;;;;;5082589;28;20564;-81
2022/01/27 07:59:13;;;;;;;0.30;0.30;;;;;;;;;;5083581;28;20031;-81
2022/01/27 08:01:39;;;;;;;1.53;1.43;;;;;;;;;;5085446;28;20071;-81
2022/01/27 08:04:06;;;;;;;1.40;1.30;;;;;;;;;;5071557;28;20486;-81
2022/01/27 08:06:32;;;;;;;0.20;0.20;;;;;;;;;;5068654;28;20039;-80
2022/01/27 08:08:58;;;;;;;0.20;0.20;;;;;;;;;;5076192;28;20131;-81
2022/01/27 08:11:24;;;;;;;1.83;0.97;;;;;;;;;;5066939;28;20403;-81
2022/01/27 08:13:50;;;;;;;0.20;0.20;;;;;;;;;;5068982;28;20047;-81
2022/01/27 08:16:16;;;;;;;0.25;0.25;;;;;;;;;;5071097;28;20035;-81
2022/01/27 08:18:42;;;;;;;0.60;0.60;;;;;;;;;;5071641;28;20036;-81
2022/01/27 08:21:08;;;;;;;0.60;0.60;;;;;;;;;;5076120;28;20032;-81
2022/01/27 08:23:34;;;;;;;1.25;1.10;;;;;;;;;;5082880;28;20054;-80
2022/01/27 08:26:09;;;;;;;0.53;0.53;;;;;;;;;;5084718;28;20032;-84
2022/01/27 08:28:57;;;;;;;2.00;0.88;;;;;;;;;;5084779;28;20270;-85
2022/01/27 08:31:32;;;;;;;0.30;0.30;;;;;;;;;;5084972;28;20040;-81
2022/01/27 08:34:03;;;;;;;0.10;0.10;;;;;;;;;;5079365;28;20035;-82
2022/01/27 08:36:29;;;;;;;0.45;0.45;;;;;;;;;;5075133;28;20496;-82
2022/01/27 08:38:55;;;;;;;0.40;0.40;;;;;;;;;;5071007;28;20024;-83
2022/01/27 08:41:21;;;;;;;0.20;0.20;;;;;;;;;;5077169;28;20109;-82
2022/01/27 08:43:47;;;;;;;0.10;0.10;;;;;;;;;;5078673;28;20115;-82
2022/01/27 08:46:14;;;;;;;0.60;0.60;;;;;;;;;;5065133;28;20078;-82
2022/01/27 08:48:42;;;;;;;0.60;0.60;;;;;;;;;;5073739;28;20029;-82
2022/01/27 08:51:10;;;;;;;0.45;0.45;;;;;;;;;;5071185;28;20670;-84
2022/01/27 08:53:37;;;;;;;0.13;0.13;;;;;;;;;;5068914;28;20048;-82
2022/01/27 08:56:04;;;;;;;4.20;1.17;;;;;;;;;;5084147;28;20139;-82
2022/01/27 08:58:31;;;;;;;0.22;0.15;;;;;;;;;;5081289;28;20285;-82
2022/01/27 09:00:57;;;;;;;0.57;0.47;;;;;;;;;;5065130;28;20123;-80
2022/01/27 09:03:23;;;;;;;0.33;0.33;;;;;;;;;;5080482;28;20024;-81
2022/01/27 09:05:49;;;;;;;1.20;0.50;;;;;;;;;;5079116;28;20285;-80
2022/01/27 09:08:15;;;;;;;0.38;0.38;;;;;;;;;;5082524;28;20107;-82
2022/01/27 09:10:41;;;;;;;0.10;0.10;;;;;;;;;;5084178;28;20127;-81
2022/01/27 09:13:07;;;;;;;1.73;1.00;;;;;;;;;;5070659;28;20114;-81
2022/01/27 09:15:34;;;;;;;2.17;0.70;;;;;;;;;;5075904;28;20070;-81
2022/01/27 09:18:00;;;;;;;1.23;0.57;;;;;;;;;;5082472;28;20274;-82
2022/01/27 09:20:27;;;;;;;1.17;1.08;;;;;;;;;;5067092;28;20644;-82
2022/01/27 09:22:55;;;;;;;0.10;0.10;;;;;;;;;;5049755;28;20048;-81
2022/01/27 09:25:26;;;;;;;0.38;0.38;;;;;;;;;;5061138;28;20035;-81
2022/01/27 09:27:53;;;;;;;1.65;0.82;;;;;;;;;;5070610;28;20025;-82
2022/01/27 09:30:19;;;;;;;;;;;;;;;;;;5082462;28;20158;-81
2022/01/27 09:32:45;;;;;;;0.10;0.10;;;;;;;;;;5079962;28;19916;-82
2022/01/27 09:35:12;;;;;;;0.30;0.30;;;;;;;;;;5069682;28;20127;-82
2022/01/27 09:37:38;;;;;;;0.10;0.10;;;;;;;;;;5067864;28;20109;-82
2022/01/27 09:40:06;;;;;;;0.37;0.33;;;;;;;;;;5066500;28;20040;-83
2022/01/27 09:42:34;;;;;;;0.00;0.00;;;;;;;;;;5055518;28;20031;-82
2022/01/27 09:45:03;;;;;;;0.20;0.20;;;;;;;;;;5070702;28;20031;-82
2022/01/27 09:47:31;;;;;;;1.20;0.22;;;;;;;;;;5079823;28;20050;-83
2022/01/27 09:52:40;;;;;;;0.43;0.43;;;;;;;;;;5080904;28;20120;-83
2022/01/27 09:55:06;;;;;;;0.32;0.30;;;;;;;;;;5080862;28;20065;-81
2022/01/27 09:57:32;;;;;;;0.55;0.55;;;;;;;;;;5060280;28;20038;-86
2022/01/27 09:59:58;;;;;;;0.57;0.57;;;;;;;;;;5063590;28;20119;-84
2022/01/27 10:02:26;;;;;;;0.75;0.75;;;;;;;;;;5064921;28;20822;-85
2022/01/27 10:04:59;;;;;;;2.78;0.50;;;;;;;;;;5066413;28;20028;-81
2022/01/27 10:07:28;;;;;;;3.10;0.75;;;;;;;;;;5069120;28;20032;-81
2022/01/27 10:10:03;;;;;;;0.35;0.35;;;;;;;;;;5079346;28;20024;-83
2022/01/27 10:12:38;;;;;;;13.45;1.00;;;;;;;;;;5077767;28;20052;-84
2022/01/27 10:15:10;;;;;;;2.10;0.52;;;;;;;;;;5077085;28;20040;-83
2022/01/27 10:17:39;;;;;;;0.20;0.20;;;;;;;;;;5081198;28;20036;-82
2022/01/27 10:20:18;;;;;;;0.28;0.20;;;;;;;;;;5080366;28;20106;-85
2022/01/27 10:23:04;;;;;;;0.20;0.20;;;;;;;;;;5062296;28;20578;-82
2022/01/27 10:25:46;;;;;;;0.10;0.10;;;;;;;;;;5082966;28;20052;-81
2022/01/27 10:28:31;;;;;;;0.43;0.25;;;;;;;;;;5074051;28;20071;-85
2022/01/27 10:31:00;;;;;;;0.10;0.10;;;;;;;;;;5082269;28;20032;-84
2022/01/27 10:33:26;;;;;;;0.80;0.55;;;;;;;;;;5079534;28;20270;-84
2022/01/27 10:35:52;;;;;;;0.10;0.10;;;;;;;;;;5077643;28;20146;-84
2022/01/27 10:38:18;;;;;;;0.10;0.10;;;;;;;;;;5081419;28;20028;-82
2022/01/27 10:40:47;;;;;;;1.42;1.10;;;;;;;;;;5081800;28;20059;-83
2022/01/27 10:43:13;;;;;;;0.45;0.15;;;;;;;;;;5081907;28;20139;-83
2022/01/27 10:46:05;;;;;;;0.33;0.10;;;;;;;;;;5071760;28;20056;-83
2022/01/27 10:48:33;;;;;;;0.50;0.50;;;;;;;;;;5069352;28;20158;-83
2022/01/27 10:51:04;;;;;;;0.75;0.75;;;;;;;;;;5076138;28;20036;-82
2022/01/27 10:53:42;;;;;;;0.10;0.10;;;;;;;;;;5068364;28;20131;-81
2022/01/27 10:56:08;;;;;;;0.08;0.08;;;;;;;;;;5071592;28;20036;-82
2022/01/27 10:58:34;;;;;;;0.10;0.10;;;;;;;;;;5067168;28;20033;-82
2022/01/27 11:01:01;;;;;;;0.22;0.22;;;;;;;;;;5082282;28;20806;-81
2022/01/27 11:03:28;;;;;;;0.43;0.43;;;;;;;;;;5077173;28;20062;-81
2022/01/27 11:05:56;;;;;;;;;;;;;;;;;;5082047;28;20050;-83
2022/01/27 11:08:24;;;;;;;0.57;0.57;;;;;;;;;;5070606;28;20023;-82
2022/01/27 11:10:50;;;;;;;1.15;1.10;;;;;;;;;;5080810;28;20040;-78
2022/01/27 11:13:19;;;;;;;0.10;0.10;;;;;;;;;;5079727;28;20028;-79
2022/01/27 11:15:45;;;;;;;0.10;0.10;;;;;;;;;;5070853;28;20055;-84
2022/01/27 11:18:14;;;;;;;0.30;0.30;;;;;;;;;;5069123;28;20112;-83
2022/01/27 11:20:58;;;;;;;0.10;0.10;;;;;;;;;;5077772;28;20038;-82
2022/01/27 11:26:13;;;;;;;0.35;0.35;;;;;;;;;;5077697;28;20047;-83
2022/01/27 11:28:44;;;;;;;0.10;0.10;;;;;;;;;;5093169;28;20034;-82
2022/01/27 11:31:10;;;;;;;0.75;0.32;;;;;;;;;;5089003;28;20036;-83
2022/01/27 11:33:37;;;;;;;0.00;0.00;;;;;;;;;;5082020;28;20046;-83
2022/01/27 11:36:14;;;;;;;0.60;0.60;;;;;;;;;;5080346;28;20042;-84
2022/01/27 11:38:42;;;;;;;0.20;0.20;;;;;;;;;;5073054;28;20028;-83
2022/01/27 11:41:28;;;;;;;3.90;0.35;;;;;;;;;;5084242;28;20942;-84
2022/01/27 11:44:14;;;;;;;0.20;0.20;;;;;;;;;;5069319;28;20089;-83
2022/01/27 11:46:40;;;;;;;0.00;0.00;;;;;;;;;;5083386;28;20115;-83
2022/01/27 11:49:06;;;;;;;0.20;0.20;;;;;;;;;;5076076;28;20120;-83
2022/01/27 11:51:32;;;;;;;0.57;0.57;;;;;;;;;;5083548;28;20036;-82
2022/01/27 11:54:00;;;;;;;0.15;0.15;;;;;;;;;;5060711;28;20060;-83
2022/01/27 11:56:31;;;;;;;0.98;0.75;;;;;;;;;;5077678;28;20036;-83
2022/01/27 11:58:58;;;;;;;0.38;0.35;;;;;;;;;;5064128;28;20025;-83
2022/01/27 12:01:26;;;;;;;0.20;0.20;;;;;;;;;;5066573;28;20032;-83
2022/01/27 12:06:35;;;;;;;0.40;0.40;;;;;;;;;;5059311;28;20074;-83
2022/01/27 12:09:19;;;;;;;0.13;0.13;;;;;;;;;;5062400;28;20032;-83
2022/01/27 12:11:50;;;;;;;0.47;0.47;;;;;;;;;;5052090;28;20028;-83
2022/01/27 12:14:28;;;;;;;0.35;0.35;;;;;;;;;;5049611;28;20025;-83
2022/01/27 12:17:10;;;;;;;2.05;1.10;;;;;;;;;;5054009;28;20120;-83
2022/01/27 12:19:49;;;;;;;0.40;0.40;;;;;;;;;;5064139;28;20056;-83
2022/01/27 12:22:16;;;;;;;2.35;1.95;;;;;;;;;;5050732;28;20130;-83
2022/01/27 12:24:58;;;;;;;5.68;0.75;;;;;;;;;;5060857;28;20810;-83
2022/01/27 12:27:25;;;;;;;3.92;1.95;;;;;;;;;;5056401;28;20020;-83
2022/01/27 12:29:56;;;;;;;1.50;1.00;;;;;;;;;;5060932;28;20081;-83
2022/01/27 12:32:32;;;;;;;0.90;0.88;;;;;;;;;;5061770;28;20064;-83
2022/01/27 12:35:01;;;;;;;0.57;0.57;;;;;;;;;;5054978;28;20045;-83
2022/01/27 12:37:34;;;;;;;0.17;0.17;;;;;;;;;;5063815;28;20039;-83
2022/01/27 12:40:01;;;;;;;0.77;0.73;;;;;;;;;;5063222;28;20048;-84
2022/01/27 12:42:38;;;;;;;2.72;1.98;;;;;;;;;;5056372;28;20032;-83
2022/01/27 12:45:11;;;;;;;2.45;0.95;;;;;;;;;;5058687;28;20031;-84
2022/01/27 12:47:48;;;;;;;2.33;1.70;;;;;;;;;;5063618;28;20035;-85
2022/01/27 12:50:18;;;;;;;1.60;1.25;;;;;;;;;;5055107;28;20037;-83
2022/01/27 12:52:46;;;;;;;9.07;1.13;;;;;;;;;;5069129;28;20104;-84
2022/01/27 12:55:16;;;;;;;1.92;1.27;;;;;;;;;;5082264;28;20050;-85
2022/01/27 12:57:43;;;;;;;3.13;1.92;;;;;;;;;;5079652;28;20040;-85
2022/01/27 13:00:13;;;;;;;3.75;1.00;;;;;;;;;;5084137;28;20099;-85
2022/01/27 13:02:39;;;;;;;4.70;1.95;;;;;;;;;;5086724;28;20156;-86
2022/01/27 13:05:07;;;;;;;1.40;1.30;;;;;;;;;;5086261;28;20051;-86
2022/01/27 13:07:35;;;;;;;0.43;0.43;;;;;;;;;;5082769;28;20036;-87
2022/01/27 13:10:07;;;;;;;0.90;0.90;;;;;;;;;;5079463;28;20028;-87
2022/01/27 13:13:06;;;;;;;2.63;1.15;;;;;;;;;;5079344;28;20051;-87
2022/01/27 13:15:27;;;;;;;3.33;2.25;;;;;;;;;;5080059;28;20085;-88
2022/01/27 13:17:59;;;;;;;14.55;2.25;;;;;;;;;;5079977;28;20036;-88
2022/01/27 13:20:31;;;;;;;1.55;1.33;;;;;;;;;;5075771;28;20020;-88
2022/01/27 13:23:03;;;;;;;2.88;2.35;;;;;;;;;;5083447;28;20086;-88
2022/01/27 13:25:38;;;;;;;3.15;1.27;;;;;;;;;;5063994;28;20046;-88
2022/01/27 13:28:05;;;;;;;0.30;0.30;;;;;;;;;;5078703;28;20708;-86
2022/01/27 13:30:32;;;;;;;3.10;1.77;;;;;;;;;;5083353;28;20135;-86
2022/01/27 13:32:58;;;;;;;4.53;2.92;;;;;;;;;;5064948;28;20029;-86
2022/01/27 13:35:25;;;;;;;30.83;1.98;;;;;;;;;;5063776;28;20334;-86
2022/01/27 13:37:56;;;;;;;0.35;0.35;;;;;;;;;;5076047;28;20032;-84
2022/01/27 13:43:14;;;;;;;2.60;0.90;;;;;;;;;;5072190;28;20113;-87
2022/01/27 13:45:40;;;;;;;2.17;1.42;;;;;;;;;;5078342;28;20036;-84
2022/01/27 13:48:23;;;;;;;2.17;1.60;;;;;;;;;;5075698;28;20029;-83
2022/01/27 13:50:59;;;;;;;1.20;1.10;;;;;;;;;;5077371;28;20035;-83
2022/01/27 13:53:25;;;;;;;;;;;;;;;;;;5069214;28;20047;-83
2022/01/27 13:56:04;;;;;;;2.38;1.73;;;;;;;;;;5065437;28;20743;-83
2022/01/27 13:58:30;;;;;;;1.27;0.88;;;;;;;;;;5067258;28;20576;-83
2022/01/27 14:01:04;;;;;;;5.67;1.43;;;;;;;;;;5081270;28;20032;-83
2022/01/27 14:03:40;;;;;;;1.55;1.35;;;;;;;;;;5073671;28;20031;-83
2022/01/27 14:06:06;;;;;;;2.25;2.05;;;;;;;;;;5069957;28;20112;-83
2022/01/27 14:08:36;;;;;;;2.40;1.90;;;;;;;;;;5072966;28;20032;-83
2022/01/27 14:11:02;;;;;;;1.02;0.77;;;;;;;;;;5082236;28;20066;-81
2022/01/27 14:13:28;;;;;;;0.95;0.95;;;;;;;;;;5083211;28;20458;-81
2022/01/27 14:15:55;;;;;;;1.17;1.13;;;;;;;;;;5077779;28;20852;-81
2022/01/27 14:18:24;;;;;;;5.88;3.03;;;;;;;;;;5078183;28;20801;-80
2022/01/27 14:20:56;;;;;;;1.50;1.40;;;;;;;;;;5079415;28;20521;-81
2022/01/27 14:23:44;;;;;;;1.30;1.02;;;;;;;;;;5081270;28;20040;-79
2022/01/27 14:26:21;;;;;;;0.93;0.93;;;;;;;;;;5069899;28;20024;-81
2022/01/27 14:28:48;;;;;;;2.53;2.08;;;;;;;;;;5067242;28;20036;-81
2022/01/27 14:31:14;;;;;;;7.07;6.43;;;;;;;;;;5082581;28;20558;-81
2022/01/27 14:33:41;;;;;;;5.67;3.13;;;;;;;;;;5078149;28;20578;-81
2022/01/27 14:36:07;;;;;;;2.03;1.70;;;;;;;;;;5075706;28;20032;-81
2022/01/27 14:38:33;;;;;;;2.05;1.95;;;;;;;;;;5071531;28;20271;-81
2022/01/27 14:40:59;;;;;;;2.15;1.63;;;;;;;;;;5080225;28;20683;-81
2022/01/27 14:43:29;;;;;;;2.70;1.35;;;;;;;;;;5065641;28;20028;-81
2022/01/27 14:45:55;;;;;;;4.28;1.27;;;;;;;;;;5069752;28;20024;-82
2022/01/27 14:48:21;;;;;;;3.87;2.87;;;;;;;;;;5081879;28;20518;-82
2022/01/27 14:50:47;;;;;;;4.50;2.73;;;;;;;;;;5078841;28;20051;-82
2022/01/27 14:53:13;;;;;;;2.67;2.42;;;;;;;;;;5079069;28;20512;-82
2022/01/27 14:55:39;;;;;;;1.17;1.13;;;;;;;;;;5082322;28;20898;-83
2022/01/27 14:58:05;;;;;;;1.08;1.02;;;;;;;;;;5078432;28;20038;-81
2022/01/27 15:00:31;;;;;;;1.60;0.90;;;;;;;;;;5081769;28;20038;-83
2022/01/27 15:02:57;;;;;;;6.88;2.50;;;;;;;;;;5078976;28;20031;-83
2022/01/27 15:05:23;;;;;;;5.63;1.55;;;;;;;;;;5078001;28;20116;-83
2022/01/27 15:07:50;;;;;;;1.20;1.03;;;;;;;;;;5062644;28;20513;-83
2022/01/27 15:10:16;;;;;;;;;;;;;;;;;;5081200;28;20028;-83
2022/01/27 15:12:42;;;;;;;18.92;5.18;;;;;;;;;;5081817;28;20383;-83
2022/01/27 15:20:40;;;;;;;1.45;1.08;;;;;;;;;;5079835;28;20039;-82
2022/01/27 15:23:05;;;;;;;;;;;;;;;;;;5081600;28;20025;-82
2022/01/27 15:25:32;;;;;;;3.30;3.00;;;;;;;;;;5078976;28;20401;-84
2022/01/27 15:27:58;;;;;;;7.50;1.50;;;;;;;;;;5075912;28;20023;-81
2022/01/27 15:30:25;;;;;;;4.32;1.40;;;;;;;;;;5070667;28;20039;-81
2022/01/27 15:32:51;;;;;;;0.57;0.57;;;;;;;;;;5077296;28;20119;-81
2022/01/27 15:35:17;;;;;;;7.00;1.85;;;;;;;;;;5063642;28;20040;-82
2022/01/27 15:37:44;;;;;;;0.85;0.85;;;;;;;;;;5075190;28;20499;-81
2022/01/27 15:40:16;;;;;;;8.23;4.65;;;;;;;;;;5077024;28;20124;-82
2022/01/27 15:42:43;;;;;;;9.30;2.33;;;;;;;;;;5065582;28;20039;-82
2022/01/27 15:45:09;;;;;;;2.38;2.03;;;;;;;;;;5072864;28;20028;-82
2022/01/27 15:47:36;;;;;;;1.20;1.13;;;;;;;;;;5071828;28;20039;-82